Ana Sayfa
METAR-TAF:

METAR-TAF

Havaalanları :

Larnaka Uluslararası Havalimanı

Larnaka, Kıbrıs

Enlem: 34-53N, Boylam: 033-38E, yükseklik: 2 m

Güncel hava durumu gözlemi

Rapor saat 15:30 UTC de 10 dakika önce yapıldı.
Rüzgar güney/güneybatıdan 10 kt
Sıcaklık 25°C
Nem 57%
Basınç 1008 hPa
Görüş mesafesi 10 km veya daha fazla
2000 ft yükseklikte az bulutlu

METAR: LCLK 261530Z 21010KT 9999 FEW020 25/16 Q1008 NOSIG

Saat: 18:40 (15:40 UTC)

Tahmin

Rapor saat 11:30 UTC de 4 saat ve 10 dakika önce yapıldı.
Ayın 26'si saat 12 UTC'den ayın 27'si saat 12 UTC'ye kadar geçerli Tahmin
Rüzgar güney/güneybatıdan 16 kt
Görüş mesafesi 10 km veya daha fazla
3000 ft yükseklikte az bulutlu
Dönüşüyor
ayın 26'si saat 15 UTC'den ayın 26'si saat 19 UTC'ye kadar
Rüzgar kuzey/kuzeybatıdan 6 kt
Dönüşüyor
ayın 27'si saat 06 UTC'den ayın 27'si saat 10 UTC'ye kadar
Rüzgar güney/güneydoğudan 10 kt

TAF: LCLK 261130Z 2612/2712 21016KT 9999 FEW030 BECMG 2615/2619 33006KT BECMG 2706/2710 15010KT

4.000'den fazla havaalanı için hava durumu gözlemleri ve tahminleri (METAR ve TAF raporları).

Kullanılabilir istasyonlar harita üzerinde sarı ve kırmızı noktalarla gösterilir.

İstasyonun adını görmek için fareyi noktanın üzerinde gezdirin.

Sonrasında hava gözlem ve tahminlerini görmek için tıklayın.

Haritayı değiştirmek için: yaklaştırmak için siyah artı işaretli yeşil düğmeye ve uzaklaştırmak için de eksi işaretli düğmeye hızla tıklayın; bitişik haritalar için yeşil okları kullanın.


METAR-TAF: